sensor_id;sensor_type;location;lat;lon;timestamp;P1;durP1;ratioP1;P2;durP2;ratioP2
48951;SDS011;34758;42.148;24.744;2024-01-30T00:01:35;6.25;;;3.88;;
48951;SDS011;34758;42.148;24.744;2024-01-30T00:04:04;6.45;;;3.95;;
48951;SDS011;34758;42.148;24.744;2024-01-30T00:06:44;5.03;;;3.28;;
48951;SDS011;34758;42.148;24.744;2024-01-30T00:09:12;6.22;;;3.03;;
48951;SDS011;34758;42.148;24.744;2024-01-30T00:11:42;4.60;;;3.00;;
48951;SDS011;34758;42.148;24.744;2024-01-30T00:14:10;6.40;;;3.53;;
48951;SDS011;34758;42.148;24.744;2024-01-30T00:16:40;5.63;;;3.58;;
48951;SDS011;34758;42.148;24.744;2024-01-30T00:19:07;6.78;;;3.83;;
48951;SDS011;34758;42.148;24.744;2024-01-30T00:21:39;5.45;;;2.95;;
48951;SDS011;34758;42.148;24.744;2024-01-30T00:24:07;6.00;;;3.30;;
48951;SDS011;34758;42.148;24.744;2024-01-30T00:26:35;4.68;;;2.83;;
48951;SDS011;34758;42.148;24.744;2024-01-30T00:29:01;6.05;;;3.28;;
48951;SDS011;34758;42.148;24.744;2024-01-30T00:31:31;5.57;;;3.72;;
48951;SDS011;34758;42.148;24.744;2024-01-30T00:33:58;7.55;;;3.72;;
48951;SDS011;34758;42.148;24.744;2024-01-30T00:36:26;7.60;;;3.70;;
48951;SDS011;34758;42.148;24.744;2024-01-30T00:38:56;6.72;;;3.65;;
48951;SDS011;34758;42.148;24.744;2024-01-30T00:41:25;7.75;;;4.13;;
48951;SDS011;34758;42.148;24.744;2024-01-30T00:43:52;6.50;;;4.05;;
48951;SDS011;34758;42.148;24.744;2024-01-30T00:46:19;5.45;;;3.47;;
48951;SDS011;34758;42.148;24.744;2024-01-30T00:48:47;5.97;;;3.67;;
48951;SDS011;34758;42.148;24.744;2024-01-30T00:51:14;7.53;;;3.97;;
48951;SDS011;34758;42.148;24.744;2024-01-30T00:53:42;6.47;;;3.28;;
48951;SDS011;34758;42.148;24.744;2024-01-30T00:56:13;8.18;;;3.58;;
48951;SDS011;34758;42.148;24.744;2024-01-30T00:58:43;7.70;;;3.45;;
48951;SDS011;34758;42.148;24.744;2024-01-30T01:01:11;5.07;;;3.30;;
48951;SDS011;34758;42.148;24.744;2024-01-30T01:03:41;5.82;;;3.30;;
48951;SDS011;34758;42.148;24.744;2024-01-30T01:06:09;7.53;;;3.60;;
48951;SDS011;34758;42.148;24.744;2024-01-30T01:08:36;4.82;;;3.28;;
48951;SDS011;34758;42.148;24.744;2024-01-30T01:11:08;6.45;;;3.90;;
48951;SDS011;34758;42.148;24.744;2024-01-30T01:13:41;7.93;;;3.90;;
48951;SDS011;34758;42.148;24.744;2024-01-30T01:16:09;7.03;;;3.65;;
48951;SDS011;34758;42.148;24.744;2024-01-30T01:18:37;6.95;;;3.78;;
48951;SDS011;34758;42.148;24.744;2024-01-30T01:21:06;5.90;;;3.35;;
48951;SDS011;34758;42.148;24.744;2024-01-30T01:23:35;6.38;;;4.13;;
48951;SDS011;34758;42.148;24.744;2024-01-30T01:26:04;10.88;;;5.07;;
48951;SDS011;34758;42.148;24.744;2024-01-30T01:28:31;6.57;;;4.07;;
48951;SDS011;34758;42.148;24.744;2024-01-30T01:31:00;7.40;;;4.45;;
48951;SDS011;34758;42.148;24.744;2024-01-30T01:33:31;10.80;;;4.93;;
48951;SDS011;34758;42.148;24.744;2024-01-30T01:35:59;9.68;;;4.95;;
48951;SDS011;34758;42.148;24.744;2024-01-30T01:38:28;7.85;;;5.15;;
48951;SDS011;34758;42.148;24.744;2024-01-30T01:40:56;9.48;;;5.00;;
48951;SDS011;34758;42.148;24.744;2024-01-30T01:43:26;10.52;;;5.00;;
48951;SDS011;34758;42.148;24.744;2024-01-30T01:45:54;7.65;;;4.68;;
48951;SDS011;34758;42.148;24.744;2024-01-30T01:48:23;10.32;;;4.90;;
48951;SDS011;34758;42.148;24.744;2024-01-30T01:50:54;8.35;;;5.03;;
48951;SDS011;34758;42.148;24.744;2024-01-30T01:53:23;7.63;;;5.15;;
48951;SDS011;34758;42.148;24.744;2024-01-30T01:55:50;12.85;;;6.60;;
48951;SDS011;34758;42.148;24.744;2024-01-30T01:58:18;7.10;;;4.85;;
48951;SDS011;34758;42.148;24.744;2024-01-30T02:00:48;7.88;;;4.43;;
48951;SDS011;34758;42.148;24.744;2024-01-30T02:03:15;6.93;;;4.45;;
48951;SDS011;34758;42.148;24.744;2024-01-30T02:05:45;6.15;;;3.92;;
48951;SDS011;34758;42.148;24.744;2024-01-30T02:08:14;6.90;;;4.45;;
48951;SDS011;34758;42.148;24.744;2024-01-30T02:10:42;7.43;;;4.35;;
48951;SDS011;34758;42.148;24.744;2024-01-30T02:13:10;11.52;;;6.43;;
48951;SDS011;34758;42.148;24.744;2024-01-30T02:15:38;8.32;;;4.70;;
48951;SDS011;34758;42.148;24.744;2024-01-30T02:18:06;11.75;;;5.07;;
48951;SDS011;34758;42.148;24.744;2024-01-30T02:20:34;7.40;;;4.20;;
48951;SDS011;34758;42.148;24.744;2024-01-30T02:23:04;10.95;;;5.05;;
48951;SDS011;34758;42.148;24.744;2024-01-30T02:25:32;13.52;;;7.40;;
48951;SDS011;34758;42.148;24.744;2024-01-30T02:27:59;10.38;;;5.90;;
48951;SDS011;34758;42.148;24.744;2024-01-30T02:30:29;7.85;;;4.93;;
48951;SDS011;34758;42.148;24.744;2024-01-30T02:32:56;12.57;;;5.43;;
48951;SDS011;34758;42.148;24.744;2024-01-30T02:35:24;8.50;;;5.30;;
48951;SDS011;34758;42.148;24.744;2024-01-30T02:37:54;8.75;;;4.82;;
48951;SDS011;34758;42.148;24.744;2024-01-30T02:40:23;8.38;;;5.53;;
48951;SDS011;34758;42.148;24.744;2024-01-30T02:42:50;10.73;;;5.97;;
48951;SDS011;34758;42.148;24.744;2024-01-30T02:45:16;8.75;;;5.43;;
48951;SDS011;34758;42.148;24.744;2024-01-30T02:47:45;11.88;;;5.82;;
48951;SDS011;34758;42.148;24.744;2024-01-30T02:50:12;10.00;;;5.90;;
48951;SDS011;34758;42.148;24.744;2024-01-30T02:52:42;11.77;;;6.30;;
48951;SDS011;34758;42.148;24.744;2024-01-30T02:55:10;10.32;;;6.05;;
48951;SDS011;34758;42.148;24.744;2024-01-30T02:57:39;11.07;;;6.45;;
48951;SDS011;34758;42.148;24.744;2024-01-30T03:00:07;9.73;;;6.65;;
48951;SDS011;34758;42.148;24.744;2024-01-30T03:02:36;12.40;;;6.72;;
48951;SDS011;34758;42.148;24.744;2024-01-30T03:05:05;14.35;;;7.03;;
48951;SDS011;34758;42.148;24.744;2024-01-30T03:07:34;10.35;;;6.32;;
48951;SDS011;34758;42.148;24.744;2024-01-30T03:10:02;14.90;;;6.70;;
48951;SDS011;34758;42.148;24.744;2024-01-30T03:12:32;11.05;;;6.78;;
48951;SDS011;34758;42.148;24.744;2024-01-30T03:15:01;17.00;;;7.57;;
48951;SDS011;34758;42.148;24.744;2024-01-30T03:17:28;13.55;;;7.43;;
48951;SDS011;34758;42.148;24.744;2024-01-30T03:19:55;11.25;;;7.03;;
48951;SDS011;34758;42.148;24.744;2024-01-30T03:22:22;11.70;;;7.15;;
48951;SDS011;34758;42.148;24.744;2024-01-30T03:24:50;14.70;;;7.30;;
48951;SDS011;34758;42.148;24.744;2024-01-30T03:27:18;11.65;;;6.95;;
48951;SDS011;34758;42.148;24.744;2024-01-30T03:29:45;12.93;;;7.45;;
48951;SDS011;34758;42.148;24.744;2024-01-30T03:32:14;11.10;;;6.78;;
48951;SDS011;34758;42.148;24.744;2024-01-30T03:34:44;10.43;;;6.05;;
48951;SDS011;34758;42.148;24.744;2024-01-30T03:37:11;10.98;;;6.63;;
48951;SDS011;34758;42.148;24.744;2024-01-30T03:39:38;11.02;;;6.25;;
48951;SDS011;34758;42.148;24.744;2024-01-30T03:42:08;8.73;;;5.80;;
48951;SDS011;34758;42.148;24.744;2024-01-30T03:44:35;10.35;;;6.22;;
48951;SDS011;34758;42.148;24.744;2024-01-30T03:47:02;9.75;;;6.45;;
48951;SDS011;34758;42.148;24.744;2024-01-30T03:49:32;12.65;;;6.40;;
48951;SDS011;34758;42.148;24.744;2024-01-30T03:52:00;11.68;;;7.35;;
48951;SDS011;34758;42.148;24.744;2024-01-30T03:54:27;9.63;;;5.95;;
48951;SDS011;34758;42.148;24.744;2024-01-30T03:56:55;12.30;;;6.82;;
48951;SDS011;34758;42.148;24.744;2024-01-30T03:59:23;13.40;;;7.15;;
48951;SDS011;34758;42.148;24.744;2024-01-30T04:01:50;13.98;;;7.60;;
48951;SDS011;34758;42.148;24.744;2024-01-30T04:04:18;13.20;;;7.30;;
48951;SDS011;34758;42.148;24.744;2024-01-30T04:06:47;15.00;;;7.45;;
48951;SDS011;34758;42.148;24.744;2024-01-30T04:09:15;12.88;;;8.00;;
48951;SDS011;34758;42.148;24.744;2024-01-30T04:11:43;12.25;;;7.32;;
48951;SDS011;34758;42.148;24.744;2024-01-30T04:14:11;13.25;;;6.93;;
48951;SDS011;34758;42.148;24.744;2024-01-30T04:16:38;11.20;;;6.90;;
48951;SDS011;34758;42.148;24.744;2024-01-30T04:19:06;11.30;;;6.60;;
48951;SDS011;34758;42.148;24.744;2024-01-30T04:21:33;13.75;;;6.70;;
48951;SDS011;34758;42.148;24.744;2024-01-30T04:24:02;11.55;;;7.25;;
48951;SDS011;34758;42.148;24.744;2024-01-30T04:26:30;12.95;;;7.15;;
48951;SDS011;34758;42.148;24.744;2024-01-30T04:28:57;12.35;;;7.28;;
48951;SDS011;34758;42.148;24.744;2024-01-30T04:31:24;10.73;;;6.65;;
48951;SDS011;34758;42.148;24.744;2024-01-30T04:33:51;12.55;;;7.65;;
48951;SDS011;34758;42.148;24.744;2024-01-30T04:36:19;13.90;;;7.75;;
48951;SDS011;34758;42.148;24.744;2024-01-30T04:38:46;10.80;;;6.55;;
48951;SDS011;34758;42.148;24.744;2024-01-30T04:41:15;12.00;;;6.60;;
48951;SDS011;34758;42.148;24.744;2024-01-30T04:43:45;11.10;;;6.45;;
48951;SDS011;34758;42.148;24.744;2024-01-30T04:46:12;11.13;;;6.25;;
48951;SDS011;34758;42.148;24.744;2024-01-30T04:48:40;13.10;;;6.38;;
48951;SDS011;34758;42.148;24.744;2024-01-30T04:51:08;14.13;;;6.75;;
48951;SDS011;34758;42.148;24.744;2024-01-30T04:53:35;12.35;;;6.80;;
48951;SDS011;34758;42.148;24.744;2024-01-30T04:56:04;14.23;;;7.65;;
48951;SDS011;34758;42.148;24.744;2024-01-30T04:58:34;14.70;;;6.70;;
48951;SDS011;34758;42.148;24.744;2024-01-30T05:01:04;15.27;;;8.00;;
48951;SDS011;34758;42.148;24.744;2024-01-30T05:03:32;10.25;;;6.38;;
48951;SDS011;34758;42.148;24.744;2024-01-30T05:06:01;13.85;;;7.32;;
48951;SDS011;34758;42.148;24.744;2024-01-30T05:08:29;16.77;;;7.95;;
48951;SDS011;34758;42.148;24.744;2024-01-30T05:10:56;13.15;;;6.97;;
48951;SDS011;34758;42.148;24.744;2024-01-30T05:13:27;13.80;;;7.57;;
48951;SDS011;34758;42.148;24.744;2024-01-30T05:15:56;16.92;;;9.43;;
48951;SDS011;34758;42.148;24.744;2024-01-30T05:18:24;16.70;;;9.13;;
48951;SDS011;34758;42.148;24.744;2024-01-30T05:20:53;14.25;;;7.88;;
48951;SDS011;34758;42.148;24.744;2024-01-30T05:23:24;16.00;;;8.68;;
48951;SDS011;34758;42.148;24.744;2024-01-30T05:25:55;13.68;;;8.30;;
48951;SDS011;34758;42.148;24.744;2024-01-30T05:28:23;13.70;;;7.95;;
48951;SDS011;34758;42.148;24.744;2024-01-30T05:30:51;12.48;;;7.60;;
48951;SDS011;34758;42.148;24.744;2024-01-30T05:33:22;14.63;;;8.05;;
48951;SDS011;34758;42.148;24.744;2024-01-30T05:35:52;12.32;;;7.97;;
48951;SDS011;34758;42.148;24.744;2024-01-30T05:38:23;13.80;;;7.97;;
48951;SDS011;34758;42.148;24.744;2024-01-30T05:40:53;14.82;;;7.82;;
48951;SDS011;34758;42.148;24.744;2024-01-30T05:43:21;14.50;;;8.35;;
48951;SDS011;34758;42.148;24.744;2024-01-30T05:45:48;16.52;;;8.60;;
48951;SDS011;34758;42.148;24.744;2024-01-30T05:48:15;15.00;;;8.18;;
48951;SDS011;34758;42.148;24.744;2024-01-30T05:50:45;15.55;;;9.07;;
48951;SDS011;34758;42.148;24.744;2024-01-30T05:53:13;35.72;;;8.70;;
48951;SDS011;34758;42.148;24.744;2024-01-30T05:55:50;16.00;;;8.88;;
48951;SDS011;34758;42.148;24.744;2024-01-30T05:58:17;23.98;;;9.10;;
48951;SDS011;34758;42.148;24.744;2024-01-30T06:00:57;19.85;;;11.25;;
48951;SDS011;34758;42.148;24.744;2024-01-30T06:03:28;20.63;;;11.18;;
48951;SDS011;34758;42.148;24.744;2024-01-30T06:06:00;20.83;;;11.00;;
48951;SDS011;34758;42.148;24.744;2024-01-30T06:08:29;22.83;;;10.77;;
48951;SDS011;34758;42.148;24.744;2024-01-30T06:10:59;17.13;;;9.68;;
48951;SDS011;34758;42.148;24.744;2024-01-30T06:13:30;20.55;;;11.52;;
48951;SDS011;34758;42.148;24.744;2024-01-30T06:16:09;22.98;;;11.10;;
48951;SDS011;34758;42.148;24.744;2024-01-30T06:18:41;17.90;;;11.23;;
48951;SDS011;34758;42.148;24.744;2024-01-30T06:21:16;15.52;;;9.20;;
48951;SDS011;34758;42.148;24.744;2024-01-30T06:23:44;17.13;;;10.15;;
48951;SDS011;34758;42.148;24.744;2024-01-30T06:26:18;15.95;;;9.68;;
48951;SDS011;34758;42.148;24.744;2024-01-30T06:28:48;20.58;;;9.73;;
48951;SDS011;34758;42.148;24.744;2024-01-30T06:31:39;15.45;;;8.27;;
48951;SDS011;34758;42.148;24.744;2024-01-30T06:34:08;19.25;;;9.18;;
48951;SDS011;34758;42.148;24.744;2024-01-30T06:36:38;13.50;;;7.68;;
48951;SDS011;34758;42.148;24.744;2024-01-30T06:39:06;17.50;;;8.77;;
48951;SDS011;34758;42.148;24.744;2024-01-30T06:41:34;14.65;;;8.88;;
48951;SDS011;34758;42.148;24.744;2024-01-30T06:44:19;15.65;;;8.55;;
48951;SDS011;34758;42.148;24.744;2024-01-30T06:46:47;17.65;;;8.40;;
48951;SDS011;34758;42.148;24.744;2024-01-30T06:49:17;14.57;;;8.93;;
48951;SDS011;34758;42.148;24.744;2024-01-30T06:51:46;16.88;;;8.32;;
48951;SDS011;34758;42.148;24.744;2024-01-30T06:54:14;17.60;;;8.15;;
48951;SDS011;34758;42.148;24.744;2024-01-30T06:56:48;20.15;;;8.60;;
48951;SDS011;34758;42.148;24.744;2024-01-30T06:59:15;13.02;;;7.75;;
48951;SDS011;34758;42.148;24.744;2024-01-30T07:01:43;17.52;;;7.43;;
48951;SDS011;34758;42.148;24.744;2024-01-30T07:04:10;13.02;;;6.97;;
48951;SDS011;34758;42.148;24.744;2024-01-30T07:06:39;13.20;;;6.93;;
48951;SDS011;34758;42.148;24.744;2024-01-30T07:12:14;15.18;;;8.52;;
48951;SDS011;34758;42.148;24.744;2024-01-30T07:14:57;17.38;;;7.78;;
48951;SDS011;34758;42.148;24.744;2024-01-30T07:17:40;12.88;;;7.00;;
48951;SDS011;34758;42.148;24.744;2024-01-30T07:20:26;14.57;;;6.68;;
48951;SDS011;34758;42.148;24.744;2024-01-30T07:23:15;11.77;;;6.28;;
48951;SDS011;34758;42.148;24.744;2024-01-30T07:26:13;12.70;;;6.60;;
48951;SDS011;34758;42.148;24.744;2024-01-30T07:28:40;10.55;;;5.78;;
48951;SDS011;34758;42.148;24.744;2024-01-30T07:31:10;10.40;;;6.45;;
48951;SDS011;34758;42.148;24.744;2024-01-30T07:33:39;13.70;;;6.55;;
48951;SDS011;34758;42.148;24.744;2024-01-30T07:36:06;13.40;;;6.68;;
48951;SDS011;34758;42.148;24.744;2024-01-30T07:38:36;16.45;;;8.10;;
48951;SDS011;34758;42.148;24.744;2024-01-30T07:41:04;13.82;;;6.55;;
48951;SDS011;34758;42.148;24.744;2024-01-30T07:43:35;12.50;;;7.03;;
48951;SDS011;34758;42.148;24.744;2024-01-30T07:46:05;11.18;;;6.63;;
48951;SDS011;34758;42.148;24.744;2024-01-30T07:48:34;18.17;;;7.05;;
48951;SDS011;34758;42.148;24.744;2024-01-30T07:51:02;18.35;;;7.05;;
48951;SDS011;34758;42.148;24.744;2024-01-30T07:53:37;12.88;;;7.15;;
48951;SDS011;34758;42.148;24.744;2024-01-30T07:56:05;11.82;;;6.93;;
48951;SDS011;34758;42.148;24.744;2024-01-30T07:58:32;13.00;;;7.18;;
48951;SDS011;34758;42.148;24.744;2024-01-30T08:01:03;12.95;;;6.47;;
48951;SDS011;34758;42.148;24.744;2024-01-30T08:03:32;10.07;;;6.60;;
48951;SDS011;34758;42.148;24.744;2024-01-30T08:06:00;11.23;;;6.47;;
48951;SDS011;34758;42.148;24.744;2024-01-30T08:08:35;14.18;;;7.65;;
48951;SDS011;34758;42.148;24.744;2024-01-30T08:11:19;13.68;;;6.40;;
48951;SDS011;34758;42.148;24.744;2024-01-30T08:13:51;10.82;;;6.47;;
48951;SDS011;34758;42.148;24.744;2024-01-30T08:16:22;13.55;;;6.80;;
48951;SDS011;34758;42.148;24.744;2024-01-30T08:19:00;15.13;;;7.60;;
48951;SDS011;34758;42.148;24.744;2024-01-30T08:21:27;11.70;;;6.40;;
48951;SDS011;34758;42.148;24.744;2024-01-30T08:23:55;10.65;;;6.20;;
48951;SDS011;34758;42.148;24.744;2024-01-30T08:26:24;8.77;;;5.68;;
48951;SDS011;34758;42.148;24.744;2024-01-30T08:28:55;7.38;;;4.28;;
48951;SDS011;34758;42.148;24.744;2024-01-30T08:31:24;8.15;;;4.50;;
48951;SDS011;34758;42.148;24.744;2024-01-30T08:33:54;15.63;;;7.53;;
48951;SDS011;34758;42.148;24.744;2024-01-30T08:36:22;10.15;;;4.95;;
48951;SDS011;34758;42.148;24.744;2024-01-30T08:38:49;9.20;;;5.40;;
48951;SDS011;34758;42.148;24.744;2024-01-30T08:41:24;12.43;;;5.85;;
48951;SDS011;34758;42.148;24.744;2024-01-30T08:43:55;8.40;;;4.53;;
48951;SDS011;34758;42.148;24.744;2024-01-30T08:46:27;8.80;;;4.78;;
48951;SDS011;34758;42.148;24.744;2024-01-30T08:48:59;15.25;;;8.00;;
48951;SDS011;34758;42.148;24.744;2024-01-30T08:51:26;11.13;;;4.93;;
48951;SDS011;34758;42.148;24.744;2024-01-30T08:53:58;11.57;;;6.38;;
48951;SDS011;34758;42.148;24.744;2024-01-30T08:56:27;6.40;;;4.13;;
48951;SDS011;34758;42.148;24.744;2024-01-30T08:58:56;7.88;;;5.00;;
48951;SDS011;34758;42.148;24.744;2024-01-30T09:01:23;6.95;;;4.38;;
48951;SDS011;34758;42.148;24.744;2024-01-30T09:03:51;8.55;;;5.05;;
48951;SDS011;34758;42.148;24.744;2024-01-30T09:06:20;9.20;;;5.00;;
48951;SDS011;34758;42.148;24.744;2024-01-30T09:08:48;24.25;;;9.65;;
48951;SDS011;34758;42.148;24.744;2024-01-30T09:11:15;7.57;;;4.82;;
48951;SDS011;34758;42.148;24.744;2024-01-30T09:13:46;7.20;;;4.88;;
48951;SDS011;34758;42.148;24.744;2024-01-30T09:16:14;7.40;;;4.13;;
48951;SDS011;34758;42.148;24.744;2024-01-30T09:18:41;9.88;;;5.20;;
48951;SDS011;34758;42.148;24.744;2024-01-30T09:21:16;10.40;;;5.90;;
48951;SDS011;34758;42.148;24.744;2024-01-30T09:23:47;16.15;;;7.10;;
48951;SDS011;34758;42.148;24.744;2024-01-30T09:26:14;11.82;;;6.32;;
48951;SDS011;34758;42.148;24.744;2024-01-30T09:28:43;13.82;;;7.18;;
48951;SDS011;34758;42.148;24.744;2024-01-30T09:31:13;10.95;;;6.28;;
48951;SDS011;34758;42.148;24.744;2024-01-30T09:33:42;11.57;;;6.43;;
48951;SDS011;34758;42.148;24.744;2024-01-30T09:36:14;9.20;;;5.47;;
48951;SDS011;34758;42.148;24.744;2024-01-30T09:38:45;11.20;;;5.45;;
48951;SDS011;34758;42.148;24.744;2024-01-30T09:41:12;11.40;;;5.40;;
48951;SDS011;34758;42.148;24.744;2024-01-30T09:43:40;8.95;;;5.53;;
48951;SDS011;34758;42.148;24.744;2024-01-30T09:46:11;10.75;;;5.72;;
48951;SDS011;34758;42.148;24.744;2024-01-30T09:48:45;10.65;;;6.25;;
48951;SDS011;34758;42.148;24.744;2024-01-30T09:51:16;12.13;;;6.88;;
48951;SDS011;34758;42.148;24.744;2024-01-30T09:53:46;10.18;;;6.80;;
48951;SDS011;34758;42.148;24.744;2024-01-30T09:56:17;10.43;;;6.50;;
48951;SDS011;34758;42.148;24.744;2024-01-30T09:58:50;9.90;;;6.13;;
48951;SDS011;34758;42.148;24.744;2024-01-30T10:01:24;12.75;;;7.97;;
48951;SDS011;34758;42.148;24.744;2024-01-30T10:03:53;10.07;;;6.97;;
48951;SDS011;34758;42.148;24.744;2024-01-30T10:06:25;9.93;;;6.55;;
48951;SDS011;34758;42.148;24.744;2024-01-30T10:08:52;11.63;;;7.82;;
48951;SDS011;34758;42.148;24.744;2024-01-30T10:11:20;16.88;;;6.82;;
48951;SDS011;34758;42.148;24.744;2024-01-30T10:13:49;10.77;;;5.88;;
48951;SDS011;34758;42.148;24.744;2024-01-30T10:16:17;12.95;;;6.30;;
48951;SDS011;34758;42.148;24.744;2024-01-30T10:18:47;9.82;;;5.35;;
48951;SDS011;34758;42.148;24.744;2024-01-30T10:21:14;7.22;;;5.28;;
48951;SDS011;34758;42.148;24.744;2024-01-30T10:23:51;11.63;;;5.30;;
48951;SDS011;34758;42.148;24.744;2024-01-30T10:26:18;9.80;;;5.20;;
48951;SDS011;34758;42.148;24.744;2024-01-30T10:28:47;12.77;;;5.60;;
48951;SDS011;34758;42.148;24.744;2024-01-30T10:31:16;10.50;;;6.93;;
48951;SDS011;34758;42.148;24.744;2024-01-30T10:33:45;10.30;;;6.72;;
48951;SDS011;34758;42.148;24.744;2024-01-30T10:36:14;6.47;;;4.88;;
48951;SDS011;34758;42.148;24.744;2024-01-30T10:38:42;8.13;;;4.70;;
48951;SDS011;34758;42.148;24.744;2024-01-30T10:41:13;7.55;;;5.13;;
48951;SDS011;34758;42.148;24.744;2024-01-30T10:43:42;9.55;;;4.95;;
48951;SDS011;34758;42.148;24.744;2024-01-30T10:46:17;8.85;;;5.90;;
48951;SDS011;34758;42.148;24.744;2024-01-30T10:48:50;9.98;;;4.75;;
48951;SDS011;34758;42.148;24.744;2024-01-30T10:51:22;11.57;;;4.90;;
48951;SDS011;34758;42.148;24.744;2024-01-30T10:53:50;8.52;;;4.63;;
48951;SDS011;34758;42.148;24.744;2024-01-30T10:56:20;12.80;;;4.80;;
48951;SDS011;34758;42.148;24.744;2024-01-30T10:58:47;10.90;;;5.10;;
48951;SDS011;34758;42.148;24.744;2024-01-30T11:01:15;5.90;;;4.22;;
48951;SDS011;34758;42.148;24.744;2024-01-30T11:03:42;7.15;;;3.70;;
48951;SDS011;34758;42.148;24.744;2024-01-30T11:06:14;5.30;;;3.67;;
48951;SDS011;34758;42.148;24.744;2024-01-30T11:09:01;4.15;;;3.25;;
48951;SDS011;34758;42.148;24.744;2024-01-30T11:11:48;6.35;;;3.50;;
48951;SDS011;34758;42.148;24.744;2024-01-30T11:14:22;3.75;;;2.83;;
48951;SDS011;34758;42.148;24.744;2024-01-30T11:16:56;4.43;;;2.95;;
48951;SDS011;34758;42.148;24.744;2024-01-30T11:19:30;5.47;;;3.38;;
48951;SDS011;34758;42.148;24.744;2024-01-30T11:21:59;6.75;;;3.83;;
48951;SDS011;34758;42.148;24.744;2024-01-30T11:24:28;6.43;;;4.07;;
48951;SDS011;34758;42.148;24.744;2024-01-30T11:26:58;6.00;;;3.65;;
48951;SDS011;34758;42.148;24.744;2024-01-30T11:29:28;7.80;;;3.30;;
48951;SDS011;34758;42.148;24.744;2024-01-30T11:31:55;5.88;;;3.65;;
48951;SDS011;34758;42.148;24.744;2024-01-30T11:34:27;5.78;;;3.78;;
48951;SDS011;34758;42.148;24.744;2024-01-30T11:36:55;4.47;;;3.00;;
48951;SDS011;34758;42.148;24.744;2024-01-30T11:39:27;5.22;;;3.42;;
48951;SDS011;34758;42.148;24.744;2024-01-30T11:42:00;6.13;;;2.90;;
48951;SDS011;34758;42.148;24.744;2024-01-30T11:44:30;5.15;;;2.78;;
48951;SDS011;34758;42.148;24.744;2024-01-30T11:46:58;5.35;;;3.15;;
48951;SDS011;34758;42.148;24.744;2024-01-30T11:49:27;3.70;;;2.45;;
48951;SDS011;34758;42.148;24.744;2024-01-30T11:51:58;3.45;;;2.80;;
48951;SDS011;34758;42.148;24.744;2024-01-30T11:54:30;6.38;;;3.40;;
48951;SDS011;34758;42.148;24.744;2024-01-30T11:56:59;3.97;;;2.90;;
48951;SDS011;34758;42.148;24.744;2024-01-30T11:59:29;4.13;;;2.60;;
48951;SDS011;34758;42.148;24.744;2024-01-30T12:01:57;5.47;;;2.85;;
48951;SDS011;34758;42.148;24.744;2024-01-30T12:04:23;3.92;;;2.65;;
48951;SDS011;34758;42.148;24.744;2024-01-30T12:06:55;3.35;;;2.08;;
48951;SDS011;34758;42.148;24.744;2024-01-30T12:09:22;4.60;;;2.00;;
48951;SDS011;34758;42.148;24.744;2024-01-30T12:11:52;4.63;;;2.72;;
48951;SDS011;34758;42.148;24.744;2024-01-30T12:14:22;8.55;;;3.45;;
48951;SDS011;34758;42.148;24.744;2024-01-30T12:16:51;4.50;;;3.03;;
48951;SDS011;34758;42.148;24.744;2024-01-30T12:19:22;3.85;;;2.80;;
48951;SDS011;34758;42.148;24.744;2024-01-30T12:21:53;4.43;;;2.47;;
48951;SDS011;34758;42.148;24.744;2024-01-30T12:24:21;8.20;;;3.33;;
48951;SDS011;34758;42.148;24.744;2024-01-30T12:26:51;5.68;;;2.40;;
48951;SDS011;34758;42.148;24.744;2024-01-30T12:29:27;6.00;;;3.28;;
48951;SDS011;34758;42.148;24.744;2024-01-30T12:31:55;6.18;;;3.35;;
48951;SDS011;34758;42.148;24.744;2024-01-30T12:34:30;6.22;;;3.38;;
48951;SDS011;34758;42.148;24.744;2024-01-30T12:36:57;9.65;;;5.20;;
48951;SDS011;34758;42.148;24.744;2024-01-30T12:39:25;11.60;;;5.75;;
48951;SDS011;34758;42.148;24.744;2024-01-30T12:41:52;19.08;;;9.15;;
48951;SDS011;34758;42.148;24.744;2024-01-30T12:44:19;6.82;;;3.55;;
48951;SDS011;34758;42.148;24.744;2024-01-30T12:46:48;7.43;;;3.42;;
48951;SDS011;34758;42.148;24.744;2024-01-30T12:49:16;4.68;;;3.03;;
48951;SDS011;34758;42.148;24.744;2024-01-30T12:51:43;6.60;;;4.10;;
48951;SDS011;34758;42.148;24.744;2024-01-30T12:54:12;5.72;;;4.07;;
48951;SDS011;34758;42.148;24.744;2024-01-30T12:56:39;3.55;;;2.75;;
48951;SDS011;34758;42.148;24.744;2024-01-30T12:59:06;2.92;;;2.15;;
48951;SDS011;34758;42.148;24.744;2024-01-30T13:01:35;7.28;;;3.25;;
48951;SDS011;34758;42.148;24.744;2024-01-30T13:04:03;3.65;;;2.22;;
48951;SDS011;34758;42.148;24.744;2024-01-30T13:06:30;3.80;;;2.30;;
48951;SDS011;34758;42.148;24.744;2024-01-30T13:08:57;5.50;;;2.53;;
48951;SDS011;34758;42.148;24.744;2024-01-30T13:11:24;4.50;;;3.13;;
48951;SDS011;34758;42.148;24.744;2024-01-30T13:13:51;4.05;;;2.53;;
48951;SDS011;34758;42.148;24.744;2024-01-30T13:16:19;5.32;;;2.47;;
48951;SDS011;34758;42.148;24.744;2024-01-30T13:18:46;5.82;;;3.30;;
48951;SDS011;34758;42.148;24.744;2024-01-30T13:21:15;4.35;;;2.92;;
48951;SDS011;34758;42.148;24.744;2024-01-30T13:23:42;10.88;;;5.30;;
48951;SDS011;34758;42.148;24.744;2024-01-30T13:26:11;6.13;;;3.63;;
48951;SDS011;34758;42.148;24.744;2024-01-30T13:28:40;5.85;;;3.72;;
48951;SDS011;34758;42.148;24.744;2024-01-30T13:31:08;13.25;;;9.07;;
48951;SDS011;34758;42.148;24.744;2024-01-30T13:33:35;4.82;;;3.40;;
48951;SDS011;34758;42.148;24.744;2024-01-30T13:36:03;5.90;;;3.63;;
48951;SDS011;34758;42.148;24.744;2024-01-30T13:38:33;5.35;;;3.08;;
48951;SDS011;34758;42.148;24.744;2024-01-30T13:41:00;5.78;;;3.75;;
48951;SDS011;34758;42.148;24.744;2024-01-30T13:43:27;10.23;;;5.28;;
48951;SDS011;34758;42.148;24.744;2024-01-30T13:45:55;5.20;;;3.25;;
48951;SDS011;34758;42.148;24.744;2024-01-30T13:48:23;5.07;;;3.55;;
48951;SDS011;34758;42.148;24.744;2024-01-30T13:50:50;6.28;;;3.50;;
48951;SDS011;34758;42.148;24.744;2024-01-30T13:53:20;4.78;;;3.60;;
48951;SDS011;34758;42.148;24.744;2024-01-30T13:55:49;7.93;;;4.00;;
48951;SDS011;34758;42.148;24.744;2024-01-30T13:58:17;5.65;;;3.40;;
48951;SDS011;34758;42.148;24.744;2024-01-30T14:00:44;6.65;;;4.25;;
48951;SDS011;34758;42.148;24.744;2024-01-30T14:03:12;6.30;;;3.40;;
48951;SDS011;34758;42.148;24.744;2024-01-30T14:05:42;5.05;;;3.25;;
48951;SDS011;34758;42.148;24.744;2024-01-30T14:08:09;6.53;;;3.42;;
48951;SDS011;34758;42.148;24.744;2024-01-30T14:10:37;7.18;;;4.40;;
48951;SDS011;34758;42.148;24.744;2024-01-30T14:13:06;6.50;;;3.60;;
48951;SDS011;34758;42.148;24.744;2024-01-30T14:15:34;9.63;;;5.05;;
48951;SDS011;34758;42.148;24.744;2024-01-30T14:18:02;6.55;;;4.05;;
48951;SDS011;34758;42.148;24.744;2024-01-30T14:20:30;5.10;;;3.72;;
48951;SDS011;34758;42.148;24.744;2024-01-30T14:22:58;8.35;;;4.25;;
48951;SDS011;34758;42.148;24.744;2024-01-30T14:25:26;8.52;;;5.07;;
48951;SDS011;34758;42.148;24.744;2024-01-30T14:27:54;6.20;;;4.18;;
48951;SDS011;34758;42.148;24.744;2024-01-30T14:30:25;10.77;;;5.15;;
48951;SDS011;34758;42.148;24.744;2024-01-30T14:32:54;6.40;;;4.50;;
48951;SDS011;34758;42.148;24.744;2024-01-30T14:35:23;6.80;;;4.25;;
48951;SDS011;34758;42.148;24.744;2024-01-30T14:37:50;7.13;;;4.03;;
48951;SDS011;34758;42.148;24.744;2024-01-30T14:40:18;6.00;;;3.88;;
48951;SDS011;34758;42.148;24.744;2024-01-30T14:42:47;5.63;;;3.80;;
48951;SDS011;34758;42.148;24.744;2024-01-30T14:45:17;8.60;;;5.68;;